Time;durP1;ratioP1;P1;durP2;ratioP2;P2;SDS_P1;SDS_P2;PMS_P1;PMS_P2;Temp;Humidity;BMP_temperature;BMP_pressure;BME280_temperature;BME280_humidity;BME280_pressure;Samples;Min_cycle;Max_cycle;Signal;HPM_P1;HPM_P2
2022/12/15 00:40:06;;;;;;;20.70;16.27;;;;;;;6.58;69.93;98872.78;5033847;28;20072;-79
2022/12/15 00:42:32;;;;;;;16.17;14.45;;;;;;;5.56;70.40;98722.31;5033788;28;20567;-79
2022/12/15 00:44:57;;;;;;;19.77;14.65;;;;;;;6.60;70.80;98900.50;5032509;28;20029;-79
2022/12/15 00:47:24;;;;;;;16.73;14.32;;;;;;;6.15;70.64;98811.16;5033771;28;20080;-77
2022/12/15 01:20:18;;;;;;;16.50;13.02;;;;;;;6.54;72.24;98735.94;5033397;28;20045;-79
2022/12/15 01:22:45;;;;;;;17.95;14.18;;;;;;;6.86;72.70;98800.56;5033200;28;20087;-78
2022/12/15 01:25:11;;;;;;;16.95;13.55;;;;;;;6.72;72.46;98788.16;5030631;28;20482;-78
2022/12/15 01:27:37;;;;;;;18.08;14.73;;;;;;;7.11;72.42;98845.03;5032894;28;20032;-78
2022/12/15 01:30:05;;;;;;;16.85;14.35;;;;;;;7.13;72.08;98833.38;5032919;28;20029;-78
2022/12/15 01:32:30;;;;;;;17.75;13.25;;;;;;;6.69;72.47;98755.22;5032851;28;20159;-78
2022/12/15 01:34:56;;;;;;;16.35;13.45;;;;;;;6.80;72.25;98777.63;5032938;28;20402;-78
2022/12/15 01:37:21;;;;;;;17.70;13.40;;;;;;;6.75;72.50;98750.28;5032991;28;20540;-78
2022/12/15 01:42:47;;;;;;;18.23;14.88;;;;;;;7.26;72.83;98786.34;4991225;28;20570;-79
2022/12/15 01:45:28;;;;;;;17.58;14.30;;;;;;;7.28;72.28;98786.19;5024191;28;20061;-78
2022/12/15 01:48:07;;;;;;;16.42;12.40;;;;;;;7.12;72.23;98762.66;5032592;28;20036;-78
2022/12/15 01:50:39;;;;;;;16.80;12.98;;;;;;;7.16;72.52;98767.41;5032396;28;20052;-79
2022/12/15 01:53:05;;;;;;;16.80;13.45;;;;;;;6.92;72.51;98721.16;5032269;28;20087;-79
2022/12/15 01:55:31;;;;;;;14.73;12.45;;;;;;;6.91;72.55;98713.44;5032419;28;20025;-79
2022/12/15 01:58:02;;;;;;;16.85;13.95;;;;;;;6.96;73.15;98716.38;5032382;28;20409;-79
2022/12/15 02:00:27;;;;;;;18.42;14.13;;;;;;;6.95;72.75;98691.13;5032211;28;20095;-79
2022/12/15 02:02:54;;;;;;;15.15;12.52;;;;;;;7.51;73.06;98771.25;5031191;28;20486;-78
2022/12/15 02:05:20;;;;;;;17.20;13.57;;;;;;;6.92;72.69;98683.59;5031983;28;20028;-78
2022/12/15 02:07:45;;;;;;;16.42;14.32;;;;;;;7.26;73.13;98717.28;5030735;28;20025;-79
2022/12/15 02:10:11;;;;;;;14.88;13.30;;;;;;;6.92;73.07;98665.22;5032136;28;20120;-78
2022/12/15 02:12:42;;;;;;;14.55;12.00;;;;;;;7.56;72.59;98781.22;5032006;28;20076;-79
2022/12/15 02:15:29;;;;;;;17.35;13.45;;;;;;;7.58;72.38;98784.50;5032043;28;20052;-79
2022/12/15 02:18:07;;;;;;;14.75;11.75;;;;;;;7.57;73.17;98781.06;5031973;28;20131;-79
2022/12/15 02:20:53;;;;;;;15.35;13.18;;;;;;;7.58;73.12;98782.69;5032014;28;20088;-79
2022/12/15 02:23:43;;;;;;;15.60;13.18;;;;;;;7.58;73.38;98780.06;5032049;28;20033;-79
2022/12/15 02:26:42;;;;;;;16.00;13.18;;;;;;;7.57;73.66;98775.78;5032110;28;20489;-79
2022/12/15 02:29:17;;;;;;;16.98;13.63;;;;;;;7.60;72.75;98788.56;5030576;28;20026;-79
2022/12/15 02:31:51;;;;;;;19.13;15.05;;;;;;;7.42;73.00;98753.09;5030621;28;20029;-79
2022/12/15 02:34:35;;;;;;;16.10;13.82;;;;;;;6.80;73.33;98648.25;5030610;28;20029;-79
2022/12/15 02:37:08;;;;;;;19.25;15.55;;;;;;;7.03;73.41;98675.31;5031361;28;20037;-79
2022/12/15 02:39:34;;;;;;;21.33;15.57;;;;;;;7.11;73.05;98693.59;5014183;28;20029;-79
2022/12/15 02:41:59;;;;;;;22.23;19.73;;;;;;;7.56;73.71;98797.81;5031503;28;20032;-78
2022/12/15 02:44:33;;;;;;;26.20;22.90;;;;;;;7.47;71.90;98798.03;5031599;28;20025;-79
2022/12/15 02:47:44;;;;;;;26.77;22.38;;;;;;;7.23;71.12;98844.47;5031517;28;20078;-79
2022/12/15 02:50:47;;;;;;;27.00;23.75;;;;;;;7.05;71.10;98841.28;5029748;28;20236;-79
2022/12/15 02:53:24;;;;;;;27.00;22.40;;;;;;;6.76;71.59;98847.19;5031382;28;20104;-79
2022/12/15 02:55:57;;;;;;;27.13;24.13;;;;;;;6.52;71.22;98839.38;5031488;28;20423;-79
2022/12/15 02:58:50;;;;;;;28.80;24.52;;;;;;;6.38;70.14;98864.50;5031582;28;20082;-79
2022/12/15 03:01:47;;;;;;;38.42;29.17;;;;;;;6.01;70.67;98846.72;5031537;28;20029;-79
2022/12/15 03:04:12;;;;;;;33.28;27.50;;;;;;;5.58;70.85;98803.31;5026920;28;20044;-79
2022/12/15 03:06:38;;;;;;;30.58;26.25;;;;;;;5.84;70.20;98851.09;5030140;28;20021;-79
2022/12/15 03:09:04;;;;;;;26.95;23.58;;;;;;;5.61;70.30;98840.44;5031449;28;20100;-79
2022/12/15 03:11:30;;;;;;;29.63;26.27;;;;;;;5.84;69.71;98873.84;5031243;28;20129;-79
2022/12/15 03:13:55;;;;;;;32.92;27.38;;;;;;;5.80;69.82;98873.34;5031211;28;20112;-79
2022/12/15 03:16:21;;;;;;;34.55;27.35;;;;;;;5.51;69.09;98870.41;5031031;28;20029;-79
2022/12/15 03:18:46;;;;;;;32.38;27.85;;;;;;;5.31;69.19;98836.66;5031076;28;20033;-79
2022/12/15 03:21:12;;;;;;;32.22;28.15;;;;;;;5.44;69.38;98883.31;5031146;28;20414;-79
2022/12/15 03:23:37;;;;;;;32.70;27.63;;;;;;;5.63;68.68;98913.63;5031286;28;20022;-79
2022/12/15 03:26:03;;;;;;;35.30;29.05;;;;;;;4.95;68.59;98822.19;5031167;28;20029;-79
2022/12/15 03:28:29;;;;;;;35.17;28.23;;;;;;;5.45;68.37;98892.00;5031247;28;20490;-79
2022/12/15 03:30:55;;;;;;;34.00;28.20;;;;;;;5.33;68.41;98868.75;5029720;28;20029;-79
2022/12/15 03:33:21;;;;;;;38.33;28.27;;;;;;;4.63;68.55;98768.00;5031100;28;20026;-79
2022/12/15 03:35:46;;;;;;;38.95;31.00;;;;;;;5.46;68.31;98914.56;5029883;28;20044;-79
2022/12/15 03:38:12;;;;;;;31.50;25.83;;;;;;;5.03;68.39;98825.63;5031222;28;20029;-79
2022/12/15 03:40:37;;;;;;;32.58;26.15;;;;;;;5.47;68.51;98924.88;5031161;28;20029;-78
2022/12/15 03:43:03;;;;;;;32.33;25.88;;;;;;;5.36;68.31;98899.00;5031127;28;20029;-79
2022/12/15 03:45:28;;;;;;;34.40;26.67;;;;;;;5.25;67.94;98887.03;5031011;28;20460;-80
2022/12/15 03:47:55;;;;;;;33.43;25.37;;;;;;;5.45;68.17;98910.31;5031103;28;20060;-80
2022/12/15 03:50:23;;;;;;;30.85;26.02;;;;;;;5.41;68.10;98931.59;5034845;28;20494;-79
2022/12/15 03:52:54;;;;;;;34.60;26.80;;;;;;;5.41;67.68;98930.75;5034726;28;20053;-79
2022/12/15 03:55:21;;;;;;;31.20;26.70;;;;;;;5.18;67.79;98872.94;5034741;28;20048;-79
2022/12/15 03:57:46;;;;;;;26.73;22.65;;;;;;;5.35;68.07;98892.97;5033591;28;20029;-79
2022/12/15 04:00:17;;;;;;;32.60;26.67;;;;;;;5.53;67.65;98908.53;5034616;28;20032;-79
2022/12/15 04:02:43;;;;;;;39.40;29.83;;;;;;;5.49;67.60;98922.09;5034396;28;20087;-79
2022/12/15 04:05:15;;;;;;;37.20;28.88;;;;;;;4.90;67.90;98812.19;5034475;28;20025;-79
2022/12/15 04:07:41;;;;;;;30.20;25.65;;;;;;;5.52;67.94;98906.88;5034455;28;20433;-79
2022/12/15 04:10:07;;;;;;;40.17;29.80;;;;;;;4.93;67.67;98797.97;5034535;28;20026;-79
2022/12/15 04:12:32;;;;;;;37.90;29.30;;;;;;;5.53;67.93;98905.91;5034394;28;20049;-79
2022/12/15 04:14:58;;;;;;;37.63;27.95;;;;;;;5.01;67.54;98840.69;5034539;28;20053;-79
2022/12/15 04:17:23;;;;;;;34.83;27.42;;;;;;;5.06;67.55;98850.66;5034329;28;20029;-79
2022/12/15 04:22:32;;;;;;;38.50;26.50;;;;;;;5.36;68.15;98859.75;5034943;28;20045;-79
2022/12/15 05:33:22;;;;;;;43.38;31.30;;;;;;;5.79;67.07;98852.56;5032856;28;20035;-80
2022/12/15 05:35:48;;;;;;;44.15;33.30;;;;;;;5.60;67.54;98827.53;5032768;28;20022;-80
2022/12/15 05:38:14;;;;;;;42.90;31.10;;;;;;;6.11;67.34;98920.72;5032847;28;20024;-80
2022/12/15 05:40:39;;;;;;;43.83;32.53;;;;;;;5.92;67.54;98885.16;5031370;28;20022;-79
2022/12/15 05:43:05;;;;;;;40.83;31.95;;;;;;;5.26;67.10;98781.38;5031434;28;20032;-80
2022/12/15 05:45:30;;;;;;;38.45;31.23;;;;;;;6.24;67.84;98915.81;5032765;28;20604;-80
2022/12/15 05:47:56;;;;;;;41.97;31.63;;;;;;;5.69;67.45;98834.41;5032597;28;20029;-80
2022/12/15 05:50:22;;;;;;;39.85;30.20;;;;;;;6.45;67.48;98948.56;5032620;28;20029;-80
2022/12/15 05:52:48;;;;;;;36.78;26.58;;;;;;;6.40;67.54;98920.22;5032542;28;20543;-80
2022/12/15 05:55:14;;;;;;;36.30;28.30;;;;;;;5.91;67.56;98874.84;5038897;28;20422;-79
2022/12/15 05:57:40;;;;;;;33.53;24.85;;;;;;;6.47;68.30;98936.91;5050299;28;20039;-78
2022/12/15 06:00:06;;;;;;;41.10;30.35;;;;;;;6.49;68.03;98928.88;5052510;28;20033;-80
2022/12/15 06:02:32;;;;;;;45.67;31.92;;;;;;;6.02;68.25;98869.31;5051918;28;20033;-79
2022/12/15 06:04:57;;;;;;;41.42;29.30;;;;;;;6.32;68.24;98912.34;5052076;28;20027;-79
2022/12/15 06:07:23;;;;;;;31.38;25.95;;;;;;;5.74;67.58;98863.53;5052112;28;20104;-79
2022/12/15 06:09:48;;;;;;;38.15;30.33;;;;;;;6.49;67.91;98960.34;5052072;28;20028;-79
2022/12/15 06:12:14;;;;;;;32.60;26.60;;;;;;;6.03;67.96;98913.69;5049741;28;20410;-77
2022/12/15 06:14:39;;;;;;;36.15;26.98;;;;;;;5.80;68.13;98883.00;5051715;28;20056;-80
2022/12/15 06:17:04;;;;;;;36.08;28.20;;;;;;;6.44;67.61;98984.44;5051904;28;20031;-79
2022/12/15 06:19:30;;;;;;;36.67;28.95;;;;;;;6.23;67.95;98940.38;5050642;28;20489;-79
2022/12/15 06:21:55;;;;;;;40.83;28.27;;;;;;;6.41;67.38;98979.53;5052176;28;20055;-80
2022/12/15 06:24:21;;;;;;;39.58;30.17;;;;;;;6.01;67.85;98935.81;5051807;28;20056;-80
2022/12/15 06:26:46;;;;;;;34.97;29.80;;;;;;;5.66;67.75;98874.00;5051695;28;20017;-80
2022/12/15 06:29:13;;;;;;;35.63;28.38;;;;;;;6.49;67.51;98997.88;5051711;28;20079;-79
2022/12/15 06:31:40;;;;;;;39.22;30.77;;;;;;;6.49;66.86;98997.88;5051571;28;20100;-80
2022/12/15 06:34:08;;;;;;;41.38;30.30;;;;;;;6.42;67.25;99009.19;5051530;28;20021;-77
2022/12/15 06:36:33;;;;;;;51.63;35.83;;;;;;;6.37;66.98;99004.44;5051452;28;20112;-80
2022/12/15 06:39:01;;;;;;;47.15;33.35;;;;;;;5.94;67.35;98942.66;5051577;28;20108;-79
2022/12/15 06:41:29;;;;;;;53.03;36.85;;;;;;;6.33;67.88;99005.75;5051369;28;20027;-79
2022/12/15 06:43:55;;;;;;;62.28;39.70;;;;;;;6.35;67.93;99024.75;5051315;28;20025;-79
2022/12/15 06:46:22;;;;;;;58.72;37.40;;;;;;;6.35;67.91;99019.53;5051544;28;20025;-80
2022/12/15 06:48:47;;;;;;;60.35;38.50;;;;;;;5.91;67.65;98953.47;5051374;28;20052;-79
2022/12/15 06:51:14;;;;;;;65.90;41.15;;;;;;;6.31;67.64;99026.06;5057811;28;20074;-78
2022/12/15 06:53:41;;;;;;;59.97;38.72;;;;;;;6.32;67.68;99035.56;5051801;28;20028;-77
2022/12/15 06:56:21;;;;;;;60.45;38.30;;;;;;;6.22;68.24;99038.34;5054344;28;20025;-78
2022/12/15 06:58:48;;;;;;;69.60;43.35;;;;;;;5.78;68.34;98971.41;5042656;28;20131;-78
2022/12/15 07:01:14;;;;;;;78.65;47.08;;;;;;;6.16;68.49;99048.66;5048501;28;20036;-77
2022/12/15 07:03:40;;;;;;;72.70;42.30;;;;;;;5.58;68.75;98961.25;5046064;28;20098;-80
2022/12/15 07:06:08;;;;;;;77.32;47.97;;;;;;;6.11;68.53;99054.41;5050211;28;20516;-80
2022/12/15 07:08:34;;;;;;;74.90;44.88;;;;;;;5.11;68.61;98904.16;5048554;28;20025;-80
2022/12/15 07:11:02;;;;;;;84.07;49.10;;;;;;;5.82;68.47;99031.19;5041337;28;20048;-78
2022/12/15 07:13:27;;;;;;;87.07;49.72;;;;;;;5.97;68.64;99031.44;5050437;28;20025;-80
2022/12/15 07:15:53;;;;;;;79.75;48.55;;;;;;;5.59;68.84;98978.59;5047738;28;20044;-80
2022/12/15 07:18:18;;;;;;;93.25;51.50;;;;;;;5.86;68.52;99040.38;5051708;28;20112;-79
2022/12/15 07:20:44;;;;;;;88.28;50.78;;;;;;;5.96;68.94;99067.31;5033914;28;20116;-80
2022/12/15 07:23:10;;;;;;;83.85;49.45;;;;;;;6.02;69.07;99079.75;5031970;28;20505;-79
2022/12/15 07:25:36;;;;;;;83.30;49.38;;;;;;;5.78;69.09;99029.03;5046417;28;20033;-80
2022/12/15 07:28:01;;;;;;;87.95;48.78;;;;;;;5.61;70.00;98986.28;5070436;28;20032;-79
2022/12/15 07:30:27;;;;;;;77.20;46.95;;;;;;;5.52;69.41;98977.59;5074930;28;20032;-80
2022/12/15 07:32:52;;;;;;;77.82;47.63;;;;;;;5.96;69.20;99040.28;5038658;28;20026;-79
2022/12/15 07:35:17;;;;;;;75.82;46.55;;;;;;;5.44;69.25;98959.25;5034952;28;20112;-79
2022/12/15 07:37:43;;;;;;;75.40;47.13;;;;;;;6.23;69.37;99071.44;5034685;28;20418;-79
2022/12/15 07:40:09;;;;;;;73.65;44.97;;;;;;;6.30;69.08;99072.44;5037406;28;20036;-79
2022/12/15 07:42:34;;;;;;;69.93;43.83;;;;;;;5.84;69.18;99020.53;5052035;28;20149;-79
2022/12/15 07:44:59;;;;;;;69.97;42.25;;;;;;;5.79;68.98;98999.25;5033125;28;20072;-79
2022/12/15 07:47:26;;;;;;;66.95;40.33;;;;;;;6.26;68.85;99065.88;5064478;28;20025;-79
2022/12/15 07:49:53;;;;;;;65.82;39.25;;;;;;;5.90;68.65;99019.94;5070269;28;20407;-79
2022/12/15 07:52:19;;;;;;;63.63;39.22;;;;;;;6.23;68.68;99071.44;5052542;28;20040;-80
2022/12/15 07:54:44;;;;;;;49.90;34.10;;;;;;;5.85;68.51;99006.47;5053391;28;20024;-80
2022/12/15 07:57:09;;;;;;;52.95;34.95;;;;;;;5.64;68.80;98984.16;5053945;28;20095;-79
2022/12/15 07:59:35;;;;;;;50.47;32.35;;;;;;;6.34;68.47;99088.66;5043350;28;20437;-80
2022/12/15 08:02:03;;;;;;;52.92;34.55;;;;;;;6.34;68.76;99065.88;5034236;28;20052;-79
2022/12/15 08:04:29;;;;;;;53.63;33.97;;;;;;;6.35;68.58;99067.53;5035537;28;20056;-79
2022/12/15 08:06:55;;;;;;;59.60;40.50;;;;;;;6.13;68.12;99026.22;5057291;28;20142;-79
2022/12/15 08:09:20;;;;;;;61.13;40.08;;;;;;;6.09;67.86;98988.22;5054190;28;20025;-79
2022/12/15 08:11:45;;;;;;;60.10;36.78;;;;;;;6.69;67.73;99091.00;5053937;28;20132;-79
2022/12/15 08:14:11;;;;;;;51.13;33.10;;;;;;;6.78;68.06;99099.69;5052691;28;20029;-79
2022/12/15 08:16:37;;;;;;;56.13;36.90;;;;;;;6.37;67.94;99028.84;5053831;28;20032;-80
2022/12/15 08:19:07;;;;;;;47.47;31.85;;;;;;;7.04;67.83;99120.50;5054283;28;20021;-79
2022/12/15 08:21:33;;;;;;;49.35;32.33;;;;;;;7.12;67.89;99123.13;5053817;28;20052;-79
2022/12/15 08:24:01;;;;;;;46.35;32.65;;;;;;;7.04;66.93;99096.06;5055843;28;20485;-79
2022/12/15 08:26:27;;;;;;;45.63;32.70;;;;;;;6.29;66.82;98968.56;5056821;28;20501;-79
2022/12/15 08:28:53;;;;;;;45.55;30.75;;;;;;;7.17;66.89;99112.94;5053737;28;20102;-79
2022/12/15 08:31:21;;;;;;;49.30;33.05;;;;;;;6.82;66.71;99043.28;5054082;28;20029;-79
2022/12/15 08:33:47;;;;;;;42.85;31.27;;;;;;;7.15;67.06;99086.03;5051811;28;20039;-80
2022/12/15 08:36:16;;;;;;;42.35;29.60;;;;;;;6.48;66.73;98998.03;5053182;28;20033;-79
2022/12/15 08:38:45;;;;;;;40.25;28.75;;;;;;;7.27;66.55;99121.47;5056783;28;20052;-80
2022/12/15 08:41:13;;;;;;;40.15;28.73;;;;;;;7.32;66.77;99119.16;5039718;28;20041;-79
2022/12/15 08:43:39;;;;;;;41.20;29.75;;;;;;;7.36;66.93;99121.44;5034491;28;20032;-80
2022/12/15 08:46:05;;;;;;;39.10;28.95;;;;;;;6.93;66.94;99039.50;5041484;28;20481;-79
2022/12/15 08:48:30;;;;;;;38.53;28.95;;;;;;;6.71;66.76;98987.72;5054255;28;20056;-80
2022/12/15 08:50:57;;;;;;;41.65;29.13;;;;;;;7.52;66.65;99105.66;5043512;28;20047;-80
2022/12/15 08:53:24;;;;;;;44.22;31.33;;;;;;;6.80;66.11;98992.78;5043787;28;20564;-80
2022/12/15 08:55:49;;;;;;;42.70;31.60;;;;;;;7.31;66.08;99059.75;5047419;28;20079;-80
2022/12/15 08:58:14;;;;;;;42.25;28.33;;;;;;;7.36;66.22;99064.47;5045336;28;20041;-80
2022/12/15 09:00:40;;;;;;;42.78;26.77;;;;;;;7.73;66.02;99105.09;5038383;28;20075;-80
2022/12/15 09:03:06;;;;;;;43.08;29.35;;;;;;;7.77;65.96;99109.03;5049381;28;20505;-79
2022/12/15 09:05:34;;;;;;;43.05;29.20;;;;;;;7.80;66.35;99113.94;5039039;28;20029;-80
2022/12/15 09:07:59;;;;;;;36.67;26.00;;;;;;;7.58;65.75;99076.91;5050250;28;20026;-79
2022/12/15 09:10:25;;;;;;;38.80;26.73;;;;;;;7.38;65.63;99073.00;5045851;28;20527;-79
2022/12/15 09:12:50;;;;;;;40.15;28.50;;;;;;;7.96;66.10;99116.50;5035039;28;20027;-79
2022/12/15 09:15:16;;;;;;;40.67;27.90;;;;;;;7.65;65.86;99071.78;5049958;28;20087;-80
2022/12/15 09:17:42;;;;;;;36.90;25.90;;;;;;;7.98;66.05;99098.72;5044066;28;20174;-79
2022/12/15 09:20:08;;;;;;;37.67;26.95;;;;;;;8.08;65.95;99101.97;5032853;28;20025;-80
2022/12/15 09:22:35;;;;;;;35.05;24.50;;;;;;;7.73;65.98;99044.66;5041207;28;20020;-79
2022/12/15 09:25:01;;;;;;;31.50;24.83;;;;;;;7.67;65.75;99032.22;5059727;28;20021;-79
2022/12/15 09:27:27;;;;;;;41.72;27.15;;;;;;;7.72;65.36;99035.97;5032780;28;20579;-80
2022/12/15 09:29:53;;;;;;;40.00;27.00;;;;;;;8.09;65.52;99087.81;5031141;28;20406;-79
2022/12/15 09:32:18;;;;;;;35.40;26.55;;;;;;;7.87;65.70;99062.31;5032535;28;20025;-80
2022/12/15 09:34:44;;;;;;;39.20;29.05;;;;;;;7.52;65.54;99013.72;5047609;28;20100;-79
2022/12/15 09:37:09;;;;;;;39.13;25.98;;;;;;;7.77;65.71;99033.63;5050015;28;20032;-79
2022/12/15 09:39:36;;;;;;;36.70;27.48;;;;;;;7.87;65.54;99033.41;5040592;28;20478;-79
2022/12/15 09:42:02;;;;;;;36.38;25.77;;;;;;;7.82;65.31;99018.16;5037678;28;20026;-79
2022/12/15 09:44:30;;;;;;;36.10;26.05;;;;;;;8.47;65.13;99120.38;5056925;28;20025;-79
2022/12/15 09:47:07;;;;;;;33.92;23.50;;;;;;;8.53;65.41;99110.94;5039267;28;20017;-79
2022/12/15 09:49:57;;;;;;;34.42;24.48;;;;;;;8.34;64.86;99074.59;5032888;28;20025;-79
2022/12/15 09:52:40;;;;;;;33.28;24.80;;;;;;;8.02;65.17;99009.81;5040410;28;20517;-79
2022/12/15 09:55:24;;;;;;;35.13;25.63;;;;;;;7.78;65.34;98969.56;5049498;28;20136;-79
2022/12/15 09:57:54;;;;;;;35.63;25.98;;;;;;;8.74;65.18;99097.13;5054008;28;20024;-79
2022/12/15 10:00:24;;;;;;;40.33;28.75;;;;;;;8.81;64.96;99085.72;5064162;28;20024;-80
2022/12/15 10:03:37;;;;;;;43.92;30.60;;;;;;;8.89;64.78;99079.56;5070179;28;20028;-79
2022/12/15 10:06:15;;;;;;;37.88;27.80;;;;;;;8.81;64.99;99071.75;5057033;28;20036;-79
2022/12/15 10:08:42;;;;;;;37.50;27.25;;;;;;;8.90;64.83;99099.63;5061541;28;20021;-79
2022/12/15 10:11:20;;;;;;;40.00;29.20;;;;;;;9.07;64.82;99103.78;5035650;28;20522;-79
2022/12/15 10:13:56;;;;;;;41.50;28.95;;;;;;;9.10;65.05;99106.06;5037720;28;20029;-79
2022/12/15 10:16:22;;;;;;;37.55;28.20;;;;;;;9.17;64.67;99101.72;5040181;28;20108;-79
2022/12/15 10:19:01;;;;;;;35.47;24.85;;;;;;;8.71;64.53;99035.16;5042424;28;20108;-80
2022/12/15 10:21:29;;;;;;;36.40;25.77;;;;;;;9.20;64.46;99118.97;5048827;28;20417;-80
2022/12/15 10:24:03;;;;;;;34.45;25.05;;;;;;;8.62;64.36;99019.59;5042731;28;20048;-80
2022/12/15 10:26:33;;;;;;;35.33;25.45;;;;;;;8.75;64.46;99022.44;5053486;28;20017;-79
2022/12/15 10:29:32;;;;;;;34.10;26.55;;;;;;;8.99;64.51;99055.66;5051535;28;20059;-79
2022/12/15 10:32:03;;;;;;;33.42;24.33;;;;;;;9.33;64.68;99097.28;5045995;28;20032;-79
2022/12/15 10:34:32;;;;;;;34.17;24.73;;;;;;;9.36;64.52;99102.19;5034271;28;20021;-79
2022/12/15 10:36:58;;;;;;;35.58;25.90;;;;;;;9.35;64.67;99106.63;5046160;28;20524;-80
2022/12/15 10:39:37;;;;;;;40.05;27.15;;;;;;;9.35;64.59;99104.00;5047725;28;20103;-79
2022/12/15 10:42:23;;;;;;;35.30;24.67;;;;;;;8.81;64.66;99025.19;5030274;28;20018;-79
2022/12/15 10:44:53;;;;;;;32.55;23.00;;;;;;;9.40;64.68;99101.63;5031566;28;20025;-79
2022/12/15 10:47:32;;;;;;;32.25;24.48;;;;;;;9.46;64.20;99100.09;5031624;28;20502;-79
2022/12/15 10:50:22;;;;;;;34.63;23.83;;;;;;;9.46;64.54;99100.91;5030287;28;20025;-80
2022/12/15 10:52:47;;;;;;;33.47;23.33;;;;;;;9.51;64.86;99095.91;5031444;28;20033;-80
2022/12/15 10:55:32;;;;;;;31.98;24.75;;;;;;;9.55;64.49;99094.53;5044046;28;20215;-79
2022/12/15 10:58:00;;;;;;;36.75;26.23;;;;;;;9.13;64.40;99033.78;5039816;28;20036;-79
2022/12/15 11:00:31;;;;;;;39.20;29.55;;;;;;;9.57;64.67;99091.72;5050248;28;20681;-79
2022/12/15 11:02:58;;;;;;;36.05;26.52;;;;;;;8.91;64.58;98985.44;5053368;28;20025;-80
2022/12/15 11:05:24;;;;;;;32.10;25.23;;;;;;;9.06;64.71;99003.91;5049347;28;20086;-79
2022/12/15 11:07:54;;;;;;;37.90;29.67;;;;;;;9.65;64.64;99104.81;5050823;28;20088;-79
2022/12/15 11:10:23;;;;;;;34.30;26.15;;;;;;;9.71;64.50;99103.28;5050537;28;20021;-79
2022/12/15 11:13:07;;;;;;;40.50;29.50;;;;;;;9.73;64.55;99101.28;5050681;28;20021;-80
2022/12/15 11:15:45;;;;;;;30.83;23.10;;;;;;;9.30;64.97;99056.28;5037754;28;20060;-79
2022/12/15 11:18:15;;;;;;;33.78;23.83;;;;;;;9.72;64.92;99123.38;5029684;28;20108;-79
2022/12/15 11:20:52;;;;;;;31.48;22.75;;;;;;;9.31;64.54;99062.38;5029496;28;20034;-80
2022/12/15 11:23:36;;;;;;;28.92;22.27;;;;;;;9.77;64.74;99111.28;5030418;28;20059;-79
2022/12/15 11:26:21;;;;;;;34.60;26.02;;;;;;;9.84;64.77;99120.09;5037758;28;20517;-79
2022/12/15 11:28:59;;;;;;;28.67;21.92;;;;;;;9.58;63.79;99074.91;5030422;28;20042;-79
2022/12/15 11:31:30;;;;;;;32.08;22.08;;;;;;;9.51;64.29;99037.94;5050595;28;20036;-79
2022/12/15 11:33:56;;;;;;;31.50;24.27;;;;;;;9.32;64.32;99012.16;5044427;28;20021;-79
2022/12/15 11:36:39;;;;;;;32.17;24.25;;;;;;;9.26;64.12;99006.78;5030495;28;20041;-79
2022/12/15 11:39:14;;;;;;;36.90;26.30;;;;;;;9.63;64.19;99069.09;5044842;28;20464;-79
2022/12/15 11:41:57;;;;;;;32.60;25.65;;;;;;;9.60;64.19;99072.09;5034732;28;20081;-80
2022/12/15 11:44:29;;;;;;;36.45;27.08;;;;;;;10.02;64.47;99138.16;5034953;28;20459;-80
2022/12/15 11:47:14;;;;;;;32.60;24.67;;;;;;;9.93;64.59;99102.34;5051988;28;20029;-79
2022/12/15 11:49:45;;;;;;;37.03;25.92;;;;;;;10.17;64.52;99138.97;5048839;28;20405;-79
2022/12/15 11:52:43;;;;;;;33.42;25.13;;;;;;;9.65;64.82;99048.63;5050698;28;20028;-80
2022/12/15 11:55:16;;;;;;;38.50;27.33;;;;;;;10.29;64.46;99133.22;5051580;28;20056;-79
2022/12/15 11:57:46;;;;;;;35.08;25.30;;;;;;;9.81;64.33;99053.72;5030829;28;20038;-78
2022/12/15 12:00:19;;;;;;;34.83;26.00;;;;;;;10.04;64.37;99087.88;5047663;28;20033;-80
2022/12/15 12:02:47;;;;;;;38.25;27.08;;;;;;;10.39;64.25;99144.31;5050899;28;20039;-79
2022/12/15 12:05:18;;;;;;;35.53;25.15;;;;;;;10.38;64.63;99145.31;5044190;28;20035;-79
2022/12/15 12:07:48;;;;;;;33.20;24.98;;;;;;;9.93;64.56;99081.25;5061209;28;20016;-80
2022/12/15 12:10:29;;;;;;;32.45;22.45;;;;;;;10.36;64.36;99160.50;5035410;28;20030;-81
2022/12/15 12:12:55;;;;;;;30.88;23.98;;;;;;;10.34;64.56;99158.06;5048430;28;20032;-79
2022/12/15 12:15:50;;;;;;;35.53;24.77;;;;;;;10.31;64.41;99161.06;5054150;28;20075;-79
2022/12/15 12:18:21;;;;;;;32.15;22.95;;;;;;;10.31;64.43;99166.34;5044560;28;20521;-79
2022/12/15 12:21:02;;;;;;;34.20;23.83;;;;;;;10.30;64.85;99162.06;5044816;28;20037;-79
2022/12/15 12:23:39;;;;;;;35.10;26.33;;;;;;;9.98;64.54;99121.06;5053404;28;20039;-78
2022/12/15 12:26:22;;;;;;;33.95;25.20;;;;;;;10.03;64.59;99116.06;5052745;28;20505;-79
2022/12/15 12:29:16;;;;;;;31.08;22.95;;;;;;;9.83;64.58;99089.47;5035159;28;20033;-79
2022/12/15 12:31:54;;;;;;;33.10;22.67;;;;;;;10.35;64.96;99164.97;5043153;28;20116;-79
2022/12/15 12:34:32;;;;;;;31.55;22.02;;;;;;;10.33;64.27;99174.06;5033995;28;20033;-78
2022/12/15 12:37:12;;;;;;;28.60;21.25;;;;;;;10.29;64.96;99163.06;5033616;28;20047;-78
2022/12/15 12:39:38;;;;;;;34.58;23.58;;;;;;;9.53;64.56;99043.03;5033574;28;20414;-78
2022/12/15 12:42:14;;;;;;;30.90;23.27;;;;;;;10.22;65.05;99148.16;5033148;28;20037;-79
2022/12/15 12:44:40;;;;;;;33.15;22.95;;;;;;;9.45;65.13;99032.59;5044801;28;20559;-79
2022/12/15 12:47:29;;;;;;;29.80;22.23;;;;;;;10.17;64.99;99148.69;5046067;28;20052;-79
2022/12/15 12:50:16;;;;;;;31.02;22.25;;;;;;;9.88;64.92;99112.63;5035767;28;20052;-79
2022/12/15 12:52:49;;;;;;;29.77;22.27;;;;;;;10.36;64.72;99194.81;5032126;28;20029;-79
2022/12/15 12:55:39;;;;;;;31.13;23.45;;;;;;;10.38;64.40;99196.25;5041613;28;20033;-79
2022/12/15 12:58:37;;;;;;;31.77;24.05;;;;;;;10.42;64.82;99194.09;5037329;28;20045;-79
2022/12/15 13:01:15;;;;;;;32.33;23.13;;;;;;;10.42;64.82;99199.38;5038013;28;20462;-79
2022/12/15 13:03:42;;;;;;;36.47;25.45;;;;;;;10.38;65.46;99206.00;5033492;28;20033;-78
2022/12/15 13:06:40;;;;;;;28.25;21.58;;;;;;;10.37;65.30;99214.94;5031860;28;20032;-78
2022/12/15 13:09:20;;;;;;;35.47;24.42;;;;;;;10.38;64.92;99213.91;5010730;28;20033;-78
2022/12/15 13:11:54;;;;;;;31.75;22.73;;;;;;;10.38;65.51;99213.91;5049722;28;20041;-78
2022/12/15 13:14:28;;;;;;;27.50;21.10;;;;;;;10.26;65.47;99204.84;5045808;28;20038;-80
2022/12/15 13:17:05;;;;;;;33.92;24.50;;;;;;;10.04;65.22;99169.63;5043467;28;20089;-79
2022/12/15 13:19:55;;;;;;;26.92;22.30;;;;;;;10.37;65.51;99221.03;5049331;28;20025;-80
2022/12/15 13:22:34;;;;;;;26.25;20.83;;;;;;;10.15;65.02;99188.44;5056857;28;20524;-80
2022/12/15 13:25:00;;;;;;;34.45;24.90;;;;;;;9.92;65.11;99155.28;5045772;28;20031;-77
2022/12/15 13:27:37;;;;;;;27.02;21.95;;;;;;;10.39;64.83;99224.28;5054197;28;20033;-77
2022/12/15 13:30:08;;;;;;;35.17;25.65;;;;;;;10.39;65.55;99232.22;5041412;28;20638;-79
2022/12/15 13:32:45;;;;;;;31.05;23.20;;;;;;;10.37;65.24;99230.75;5032397;28;20072;-79
2022/12/15 13:35:11;;;;;;;30.98;23.50;;;;;;;10.41;65.46;99237.34;5038282;28;20060;-79
2022/12/15 13:37:49;;;;;;;37.88;27.10;;;;;;;10.42;65.71;99234.50;5046773;28;20053;-79
2022/12/15 13:40:32;;;;;;;28.52;22.65;;;;;;;10.43;64.88;99237.97;5046868;28;20060;-79
2022/12/15 13:43:03;;;;;;;38.00;28.20;;;;;;;10.42;65.05;99242.44;5032347;28;20026;-79
2022/12/15 13:45:43;;;;;;;34.95;28.48;;;;;;;10.40;65.29;99248.88;5032610;28;20061;-80
2022/12/15 13:48:26;;;;;;;37.45;26.50;;;;;;;10.30;65.78;99240.41;5055760;28;20036;-79
2022/12/15 13:51:22;;;;;;;32.97;23.77;;;;;;;10.36;65.62;99261.59;5068572;28;20024;-79
2022/12/15 13:54:11;;;;;;;37.30;26.55;;;;;;;9.95;65.97;99205.84;5070033;28;20036;-79
2022/12/15 13:57:01;;;;;;;36.17;25.52;;;;;;;10.31;65.44;99273.72;5048270;28;20042;-80
2022/12/15 13:59:32;;;;;;;37.15;24.98;;;;;;;10.26;65.52;99271.63;5033562;28;20068;-80
2022/12/15 14:01:58;;;;;;;34.85;25.70;;;;;;;9.67;66.33;99207.47;5028662;28;20033;-79
2022/12/15 14:04:24;;;;;;;36.35;26.90;;;;;;;10.12;65.80;99272.41;5030438;28;20037;-79
2022/12/15 14:06:54;;;;;;;35.33;25.27;;;;;;;10.06;66.26;99265.22;5032150;28;20151;-79